createdAt,value
2022-10-21T00:01:59.363Z,18.00
2022-10-21T00:04:22.886Z,16.77
2022-10-21T00:06:46.951Z,14.77
2022-10-21T00:09:10.566Z,15.98
2022-10-21T00:11:35.551Z,14.80
2022-10-21T00:13:59.110Z,15.25
2022-10-21T00:16:22.678Z,17.17
2022-10-21T00:18:48.055Z,12.82
2022-10-21T00:21:14.561Z,14.52
2022-10-21T00:23:38.300Z,15.20
2022-10-21T00:26:02.841Z,15.10
2022-10-21T00:28:28.906Z,14.57
2022-10-21T00:30:52.703Z,13.68
2022-10-21T00:33:16.470Z,14.05
2022-10-21T00:35:40.120Z,15.32
2022-10-21T00:38:03.703Z,14.93
2022-10-21T00:40:27.264Z,16.67
2022-10-21T00:42:50.818Z,14.23
2022-10-21T00:45:23.361Z,17.60
2022-10-21T00:47:51.468Z,14.65
2022-10-21T00:50:29.298Z,16.30
2022-10-21T00:52:53.955Z,19.23
2022-10-21T00:55:17.738Z,15.95
2022-10-21T00:57:41.685Z,14.85
2022-10-21T01:00:08.438Z,15.43
2022-10-21T01:02:33.543Z,14.27
2022-10-21T01:05:01.233Z,17.45
2022-10-21T01:07:25.192Z,14.82
2022-10-21T01:09:48.751Z,13.60
2022-10-21T01:12:27.009Z,16.55
2022-10-21T01:14:57.700Z,22.25
2022-10-21T01:17:52.322Z,15.68
2022-10-21T01:20:59.894Z,15.05
2022-10-21T01:24:07.653Z,14.45
2022-10-21T01:27:07.375Z,15.32
2022-10-21T01:30:14.431Z,17.15
2022-10-21T01:33:16.768Z,16.25
2022-10-21T01:35:49.280Z,19.25
2022-10-21T01:38:24.014Z,17.27
2022-10-21T01:40:57.235Z,15.60
2022-10-21T01:43:30.081Z,21.02
2022-10-21T01:45:57.983Z,18.15
2022-10-21T01:48:29.070Z,15.80
2022-10-21T01:50:56.899Z,15.65
2022-10-21T01:53:23.223Z,15.90
2022-10-21T01:55:49.561Z,16.00
2022-10-21T01:58:21.723Z,16.70
2022-10-21T02:00:46.492Z,17.17
2022-10-21T02:03:18.595Z,16.52
2022-10-21T02:05:44.122Z,19.02
2022-10-21T02:08:08.069Z,16.88
2022-10-21T02:10:36.994Z,16.67
2022-10-21T02:13:04.027Z,18.02
2022-10-21T02:15:29.160Z,16.73
2022-10-21T02:17:59.927Z,16.80
2022-10-21T02:20:28.742Z,15.38
2022-10-21T02:22:54.355Z,17.55
2022-10-21T02:25:22.055Z,17.88
2022-10-21T02:27:46.972Z,17.83
2022-10-21T02:30:11.832Z,21.10
2022-10-21T02:32:40.240Z,19.50
2022-10-21T02:35:18.611Z,26.25
2022-10-21T02:37:52.495Z,19.23
2022-10-21T02:40:23.909Z,16.30
2022-10-21T02:42:52.718Z,22.27
2022-10-21T02:45:18.453Z,17.48
2022-10-21T02:47:44.297Z,16.65
2022-10-21T02:50:08.839Z,19.58
2022-10-21T02:52:32.421Z,17.90
2022-10-21T02:54:57.310Z,18.17
2022-10-21T02:57:20.900Z,18.05
2022-10-21T02:59:44.463Z,16.65
2022-10-21T03:02:08.031Z,19.02
2022-10-21T03:04:31.556Z,18.67
2022-10-21T03:06:55.167Z,16.75
2022-10-21T03:09:18.707Z,19.25
2022-10-21T03:11:43.695Z,19.40
2022-10-21T03:14:07.203Z,17.08
2022-10-21T03:16:30.812Z,17.92
2022-10-21T03:18:54.351Z,15.90
2022-10-21T03:21:17.903Z,16.75
2022-10-21T03:23:41.475Z,15.35
2022-10-21T03:26:05.143Z,18.55
2022-10-21T03:28:30.470Z,20.60
2022-10-21T03:30:55.522Z,18.08
2022-10-21T03:33:19.050Z,19.92
2022-10-21T03:35:42.681Z,17.52
2022-10-21T03:38:06.252Z,20.50
2022-10-21T03:40:30.425Z,18.98
2022-10-21T03:42:54.031Z,18.90
2022-10-21T03:45:19.183Z,18.23
2022-10-21T03:47:42.695Z,19.30
2022-10-21T03:50:11.874Z,17.38
2022-10-21T03:52:37.847Z,20.73
2022-10-21T03:55:01.455Z,20.92
2022-10-21T03:57:25.048Z,21.17
2022-10-21T03:59:48.607Z,17.40
2022-10-21T04:02:13.644Z,18.17
2022-10-21T04:04:37.319Z,21.48
2022-10-21T04:07:00.950Z,19.17
2022-10-21T04:09:24.450Z,19.92
2022-10-21T04:11:48.015Z,23.38
2022-10-21T04:14:14.547Z,24.38
2022-10-21T04:16:39.110Z,20.50
2022-10-21T04:19:04.325Z,23.40
2022-10-21T04:21:28.086Z,19.27
2022-10-21T04:23:51.624Z,20.80
2022-10-21T04:26:15.266Z,21.08
2022-10-21T04:28:39.451Z,19.95
2022-10-21T04:31:03.403Z,20.25
2022-10-21T04:33:27.146Z,20.13
2022-10-21T04:35:52.246Z,20.35
2022-10-21T04:38:15.887Z,18.42
2022-10-21T04:40:39.547Z,24.48
2022-10-21T04:43:03.759Z,20.23
2022-10-21T04:45:27.409Z,25.02
2022-10-21T04:47:50.952Z,21.92
2022-10-21T04:50:14.662Z,19.48
2022-10-21T04:52:40.831Z,21.10
2022-10-21T04:55:07.143Z,22.55
2022-10-21T04:57:30.739Z,23.52
2022-10-21T04:59:54.327Z,21.92
2022-10-21T05:02:20.498Z,21.40
2022-10-21T05:04:46.625Z,23.98
2022-10-21T05:07:10.458Z,19.30
2022-10-21T05:09:35.495Z,23.67
2022-10-21T05:11:59.075Z,24.52
2022-10-21T05:14:23.056Z,26.75
2022-10-21T05:16:46.613Z,26.98
2022-10-21T05:19:10.239Z,25.23
2022-10-21T05:21:33.806Z,23.80
2022-10-21T05:23:57.480Z,26.20
2022-10-21T05:26:24.263Z,25.15
2022-10-21T05:28:47.848Z,24.10
2022-10-21T05:31:11.387Z,23.98
2022-10-21T05:33:35.017Z,20.27
2022-10-21T05:36:00.991Z,22.38
2022-10-21T05:38:24.603Z,26.40
2022-10-21T05:40:48.977Z,22.27
2022-10-21T05:43:13.932Z,21.60
2022-10-21T05:45:37.465Z,22.50
2022-10-21T05:48:01.010Z,23.08
2022-10-21T05:50:24.645Z,21.85
2022-10-21T05:52:48.269Z,24.10
2022-10-21T05:55:11.951Z,26.67
2022-10-21T05:57:36.233Z,22.80
2022-10-21T06:00:01.206Z,24.67
2022-10-21T06:02:24.771Z,21.13
2022-10-21T06:04:48.267Z,25.75
2022-10-21T06:07:12.007Z,25.42
2022-10-21T06:09:35.567Z,21.55
2022-10-21T06:11:59.203Z,20.23
2022-10-21T06:14:22.722Z,20.67
2022-10-21T06:16:47.741Z,21.73
2022-10-21T06:19:11.283Z,22.95
2022-10-21T06:21:34.907Z,24.15
2022-10-21T06:23:58.472Z,21.08
2022-10-21T06:26:22.566Z,20.70
2022-10-21T06:28:46.084Z,20.25
2022-10-21T06:31:14.308Z,24.75
2022-10-21T06:33:39.304Z,20.10
2022-10-21T06:36:02.939Z,22.23
2022-10-21T06:38:27.186Z,20.30
2022-10-21T06:40:50.761Z,22.10
2022-10-21T06:43:14.286Z,20.08
2022-10-21T06:45:38.047Z,20.75
2022-10-21T06:48:01.958Z,21.15
2022-10-21T06:50:27.220Z,21.95
2022-10-21T06:52:50.897Z,18.58
2022-10-21T06:55:14.477Z,22.33
2022-10-21T06:57:38.132Z,27.30
2022-10-21T07:00:01.843Z,25.02
2022-10-21T07:02:25.504Z,23.17
2022-10-21T07:04:49.470Z,19.63
2022-10-21T07:07:14.457Z,23.85
2022-10-21T07:09:38.082Z,18.23
2022-10-21T07:12:02.911Z,21.17
2022-10-21T07:14:26.551Z,18.58
2022-10-21T07:16:51.512Z,21.90
2022-10-21T07:19:15.385Z,21.83
2022-10-21T07:21:39.034Z,18.60
2022-10-21T07:24:04.045Z,20.48
2022-10-21T07:26:29.416Z,19.40
2022-10-21T07:28:53.163Z,24.33
2022-10-21T07:31:18.572Z,18.13
2022-10-21T07:33:43.457Z,21.27
2022-10-21T07:36:10.396Z,21.20
2022-10-21T07:38:34.263Z,17.33
2022-10-21T07:40:59.338Z,20.52
2022-10-21T07:43:22.903Z,19.20
2022-10-21T07:45:46.560Z,19.52
2022-10-21T07:48:10.445Z,21.25
2022-10-21T07:50:34.019Z,20.17
2022-10-21T07:53:11.039Z,19.23
2022-10-21T07:55:35.848Z,20.33
2022-10-21T07:58:00.967Z,23.55
2022-10-21T08:00:24.538Z,20.65
2022-10-21T08:02:48.071Z,21.70
2022-10-21T08:05:11.644Z,18.58
2022-10-21T08:07:35.831Z,17.95
2022-10-21T08:09:59.491Z,18.40
2022-10-21T08:12:23.024Z,22.27
2022-10-21T08:14:48.155Z,19.80
2022-10-21T08:17:11.670Z,22.85
2022-10-21T08:19:35.799Z,20.23
2022-10-21T08:22:00.904Z,19.42
2022-10-21T08:24:24.644Z,19.45
2022-10-21T08:26:48.337Z,25.13
2022-10-21T08:29:11.920Z,17.20
2022-10-21T08:31:36.880Z,22.38
2022-10-21T08:34:00.461Z,19.73
2022-10-21T08:36:26.015Z,18.02
2022-10-21T08:38:50.545Z,17.73
2022-10-21T08:41:36.763Z,21.00
2022-10-21T08:44:06.867Z,17.80
2022-10-21T08:46:37.159Z,18.05
2022-10-21T08:49:05.398Z,20.27
2022-10-21T08:51:34.591Z,17.65
2022-10-21T08:54:04.024Z,18.42
2022-10-21T08:56:28.732Z,20.85
2022-10-21T08:58:53.766Z,17.33
2022-10-21T09:01:24.474Z,20.52
2022-10-21T09:03:57.786Z,21.30
2022-10-21T09:06:29.578Z,17.75
2022-10-21T09:09:08.458Z,18.25
2022-10-21T09:11:48.067Z,17.15
2022-10-21T09:14:58.631Z,18.67
2022-10-21T09:17:36.662Z,32.05
2022-10-21T09:20:13.916Z,17.67
2022-10-21T09:22:56.473Z,14.38
2022-10-21T09:25:25.064Z,18.13
2022-10-21T09:27:57.366Z,14.82
2022-10-21T09:30:23.226Z,12.82
2022-10-21T09:32:51.111Z,14.10
2022-10-21T09:35:25.840Z,14.30
2022-10-21T09:37:53.421Z,13.32
2022-10-21T09:40:19.362Z,16.02
2022-10-21T09:42:47.269Z,13.30
2022-10-21T09:45:22.353Z,15.48
2022-10-21T09:47:49.606Z,14.98
2022-10-21T09:50:18.768Z,15.73
2022-10-21T09:52:51.430Z,17.35
2022-10-21T09:55:16.008Z,17.67
2022-10-21T09:57:47.470Z,16.33
2022-10-21T10:00:13.975Z,16.35
2022-10-21T10:02:43.171Z,16.30
2022-10-21T10:05:36.449Z,15.02
2022-10-21T10:08:00.044Z,14.63
2022-10-21T10:10:32.918Z,17.45
2022-10-21T10:12:58.688Z,17.42
2022-10-21T10:15:34.561Z,15.60
2022-10-21T10:17:58.857Z,20.92
2022-10-21T10:20:23.864Z,14.43
2022-10-21T10:22:49.425Z,22.80
2022-10-21T10:25:24.270Z,18.73
2022-10-21T10:27:54.210Z,17.15
2022-10-21T10:30:18.611Z,17.75
2022-10-21T10:32:42.731Z,18.40
2022-10-21T10:35:23.850Z,17.00
2022-10-21T10:37:50.546Z,17.58
2022-10-21T10:40:23.834Z,20.65
2022-10-21T10:42:47.714Z,15.50
2022-10-21T10:45:19.688Z,16.02
2022-10-21T10:47:49.140Z,18.30
2022-10-21T10:50:45.622Z,14.48
2022-10-21T10:53:33.704Z,20.13
2022-10-21T10:56:07.932Z,19.10
2022-10-21T10:58:36.058Z,17.67
2022-10-21T11:01:05.157Z,18.52
2022-10-21T11:03:41.122Z,15.13
2022-10-21T11:06:15.632Z,15.32
2022-10-21T11:08:45.268Z,15.10
2022-10-21T11:11:16.382Z,17.55
2022-10-21T11:13:42.197Z,15.23
2022-10-21T11:16:26.015Z,13.10
2022-10-21T11:18:58.262Z,16.23
2022-10-21T11:21:43.231Z,17.60
2022-10-21T11:24:30.268Z,16.15
2022-10-21T11:27:01.219Z,16.45
2022-10-21T11:29:41.187Z,18.58
2022-10-21T11:32:21.606Z,14.82
2022-10-21T11:35:01.535Z,12.82
2022-10-21T11:37:44.238Z,15.02
2022-10-21T11:40:21.174Z,15.85
2022-10-21T11:42:48.363Z,15.88
2022-10-21T11:45:38.995Z,12.48
2022-10-21T11:48:18.304Z,17.30
2022-10-21T11:50:54.512Z,17.55
2022-10-21T11:53:36.512Z,11.95
2022-10-21T11:56:14.761Z,14.20
2022-10-21T11:58:51.575Z,14.13
2022-10-21T12:01:28.511Z,15.88
2022-10-21T12:04:24.464Z,12.30
2022-10-21T12:07:07.743Z,12.70
2022-10-21T12:09:40.039Z,16.42
2022-10-21T12:12:10.235Z,12.30
2022-10-21T12:14:38.159Z,14.30
2022-10-21T12:17:06.902Z,13.50
2022-10-21T12:19:31.350Z,14.90
2022-10-21T12:21:55.223Z,13.80
2022-10-21T12:24:36.611Z,17.80
2022-10-21T12:27:11.079Z,12.63
2022-10-21T12:29:59.945Z,16.98
2022-10-21T12:32:31.148Z,13.40
2022-10-21T12:34:55.569Z,16.80
2022-10-21T12:37:47.727Z,14.40
2022-10-21T12:40:17.405Z,13.32
2022-10-21T12:42:47.958Z,15.55
2022-10-21T12:45:28.368Z,16.48
2022-10-21T12:47:54.452Z,16.05
2022-10-21T12:50:29.730Z,15.55
2022-10-21T12:53:18.170Z,16.88
2022-10-21T12:55:43.241Z,20.48
2022-10-21T12:58:23.773Z,16.20
2022-10-21T13:00:57.205Z,13.50
2022-10-21T13:03:22.970Z,17.85
2022-10-21T13:06:07.122Z,15.20
2022-10-21T13:08:41.529Z,13.63
2022-10-21T13:11:24.004Z,15.55
2022-10-21T13:13:50.188Z,14.57
2022-10-21T13:16:46.742Z,16.13
2022-10-21T13:19:35.579Z,16.60
2022-10-21T13:22:04.560Z,13.88
2022-10-21T13:24:32.172Z,16.80
2022-10-21T13:26:58.321Z,14.98
2022-10-21T13:29:33.486Z,16.05
2022-10-21T13:32:30.111Z,17.30
2022-10-21T13:35:03.019Z,13.93
2022-10-21T13:37:30.278Z,17.20
2022-10-21T13:39:55.696Z,14.32
2022-10-21T13:42:24.091Z,15.13
2022-10-21T13:44:59.135Z,13.82
2022-10-21T13:47:30.278Z,13.88
2022-10-21T13:49:56.658Z,18.40
2022-10-21T13:52:20.503Z,13.15
2022-10-21T13:54:44.052Z,12.48
2022-10-21T13:57:08.958Z,14.90
2022-10-21T13:59:34.656Z,15.05
2022-10-21T14:01:59.791Z,16.80
2022-10-21T14:04:27.055Z,17.75
2022-10-21T14:06:57.793Z,15.00
2022-10-21T14:09:27.159Z,19.55
2022-10-21T14:11:54.871Z,16.75
2022-10-21T14:14:22.993Z,20.08
2022-10-21T14:16:53.394Z,13.57
2022-10-21T14:19:23.242Z,14.52
2022-10-21T14:21:52.394Z,15.63
2022-10-21T14:24:35.733Z,16.67
2022-10-21T14:26:59.761Z,13.75
2022-10-21T14:29:25.584Z,13.60
2022-10-21T14:31:49.383Z,14.93
2022-10-21T14:34:24.359Z,17.10
2022-10-21T14:37:07.835Z,18.52
2022-10-21T14:39:34.758Z,14.63
2022-10-21T14:42:05.238Z,16.23
2022-10-21T14:44:30.930Z,15.35
2022-10-21T14:46:55.631Z,14.20
2022-10-21T14:49:24.449Z,13.95
2022-10-21T14:51:48.124Z,18.13
2022-10-21T14:54:27.722Z,15.65
2022-10-21T14:56:51.317Z,15.18
2022-10-21T14:59:23.997Z,16.02
2022-10-21T15:01:47.999Z,15.00
2022-10-21T15:04:44.917Z,14.68
2022-10-21T15:07:19.570Z,19.00
2022-10-21T15:10:13.047Z,18.40
2022-10-21T15:12:41.841Z,19.13
2022-10-21T15:15:07.099Z,20.70
2022-10-21T15:17:30.763Z,18.58
2022-10-21T15:19:55.874Z,18.30
2022-10-21T15:22:30.122Z,17.67
2022-10-21T15:24:56.035Z,18.33
2022-10-21T15:27:27.110Z,17.05
2022-10-21T15:29:50.775Z,15.90
2022-10-21T15:32:19.432Z,14.98
2022-10-21T15:34:43.284Z,22.33
2022-10-21T15:37:08.427Z,19.90
2022-10-21T15:39:32.595Z,20.58
2022-10-21T15:41:57.557Z,19.00
2022-10-21T15:44:25.918Z,19.58
2022-10-21T15:46:57.530Z,14.75
2022-10-21T15:49:24.649Z,16.52
2022-10-21T15:51:49.529Z,24.02
2022-10-21T15:54:15.467Z,21.73
2022-10-21T15:56:39.081Z,23.67
2022-10-21T15:59:03.182Z,16.23
2022-10-21T16:01:28.291Z,17.27
2022-10-21T16:03:51.897Z,18.05
2022-10-21T16:06:18.710Z,15.98
2022-10-21T16:08:42.371Z,20.73
2022-10-21T16:11:09.592Z,15.10
2022-10-21T16:13:33.160Z,15.95
2022-10-21T16:15:57.454Z,20.90
2022-10-21T16:18:21.055Z,20.10
2022-10-21T16:20:44.794Z,18.00
2022-10-21T16:23:08.735Z,17.35
2022-10-21T16:25:32.323Z,24.33
2022-10-21T16:27:57.295Z,26.10
2022-10-21T16:30:23.728Z,18.25
2022-10-21T16:32:47.479Z,21.95
2022-10-21T16:35:13.934Z,19.83
2022-10-21T16:37:37.752Z,23.15
2022-10-21T16:40:02.151Z,18.35
2022-10-21T16:42:25.855Z,21.40
2022-10-21T16:44:51.225Z,19.55
2022-10-21T16:47:19.494Z,18.05
2022-10-21T16:49:43.065Z,20.50
2022-10-21T16:52:06.959Z,21.48
2022-10-21T16:54:30.522Z,23.92
2022-10-21T16:56:55.614Z,21.52
2022-10-21T16:59:19.389Z,23.95
2022-10-21T17:01:44.590Z,25.38
2022-10-21T17:04:08.207Z,25.92
2022-10-21T17:06:31.972Z,26.10
2022-10-21T17:08:57.263Z,26.27
2022-10-21T17:11:23.224Z,31.33
2022-10-21T17:13:47.167Z,28.42
2022-10-21T17:16:11.026Z,25.50
2022-10-21T17:18:35.973Z,27.15
2022-10-21T17:20:59.540Z,33.88
2022-10-21T17:23:24.608Z,24.88
2022-10-21T17:25:48.190Z,23.75
2022-10-21T17:28:11.706Z,31.05
2022-10-21T17:30:35.467Z,26.98
2022-10-21T17:32:59.049Z,30.08
2022-10-21T17:35:24.188Z,34.80
2022-10-21T17:37:48.289Z,32.42
2022-10-21T17:40:16.478Z,33.20
2022-10-21T17:42:40.287Z,33.72
2022-10-21T17:45:04.191Z,32.35
2022-10-21T17:47:27.820Z,32.63
2022-10-21T17:49:51.351Z,38.55
2022-10-21T17:52:16.240Z,36.15
2022-10-21T17:54:39.842Z,41.70
2022-10-21T17:57:03.341Z,32.88
2022-10-21T17:59:26.947Z,42.58
2022-10-21T18:01:50.539Z,43.85
2022-10-21T18:04:14.399Z,50.08
2022-10-21T18:06:38.029Z,41.90
2022-10-21T18:09:05.382Z,37.63
2022-10-21T18:11:29.003Z,49.17
2022-10-21T18:13:55.172Z,44.42
2022-10-21T18:16:22.913Z,57.72
2022-10-21T18:18:47.261Z,54.05
2022-10-21T18:21:13.403Z,44.00
2022-10-21T18:23:39.147Z,41.70
2022-10-21T18:26:05.886Z,43.88
2022-10-21T18:28:29.583Z,47.97
2022-10-21T18:30:53.170Z,45.40
2022-10-21T18:33:16.724Z,47.05
2022-10-21T18:35:40.366Z,60.80
2022-10-21T18:38:03.947Z,48.63
2022-10-21T18:40:28.227Z,50.75
2022-10-21T18:42:53.262Z,46.88
2022-10-21T18:45:16.965Z,52.78
2022-10-21T18:47:40.954Z,52.50
2022-10-21T18:50:05.186Z,50.08
2022-10-21T18:52:28.770Z,50.53
2022-10-21T18:54:52.262Z,45.63
2022-10-21T18:57:15.952Z,52.22
2022-10-21T18:59:41.098Z,49.83
2022-10-21T19:02:04.688Z,40.03
2022-10-21T19:04:28.268Z,45.05
2022-10-21T19:06:51.879Z,42.10
2022-10-21T19:09:20.256Z,43.53
2022-10-21T19:11:44.941Z,56.17
2022-10-21T19:14:11.420Z,46.28
2022-10-21T19:16:39.662Z,61.60
2022-10-21T19:19:03.363Z,60.13
2022-10-21T19:21:27.552Z,77.95
2022-10-21T19:23:52.186Z,76.53
2022-10-21T19:26:18.794Z,80.30
2022-10-21T19:28:44.781Z,74.47
2022-10-21T19:31:11.267Z,88.95
2022-10-21T19:33:36.181Z,88.40
2022-10-21T19:36:01.569Z,75.80
2022-10-21T19:38:39.654Z,75.32
2022-10-21T19:41:13.677Z,90.63
2022-10-21T19:43:37.234Z,75.05
2022-10-21T19:46:03.771Z,98.47
2022-10-21T19:48:27.334Z,100.28
2022-10-21T19:50:53.598Z,71.95
2022-10-21T19:53:17.632Z,70.68
2022-10-21T19:55:41.315Z,85.22
2022-10-21T19:58:04.880Z,162.57
2022-10-21T20:00:28.469Z,128.18
2022-10-21T20:02:51.994Z,110.72
2022-10-21T20:05:15.571Z,98.57
2022-10-21T20:07:41.143Z,78.57
2022-10-21T20:10:07.085Z,87.22
2022-10-21T20:12:30.634Z,81.75
2022-10-21T20:14:54.187Z,91.97
2022-10-21T20:17:18.383Z,79.18
2022-10-21T20:19:42.054Z,127.50
2022-10-21T20:22:05.626Z,68.97
2022-10-21T20:24:30.618Z,141.77
2022-10-21T20:26:56.177Z,88.80
2022-10-21T20:29:23.103Z,80.55
2022-10-21T20:31:46.836Z,92.68
2022-10-21T20:34:14.134Z,141.48
2022-10-21T20:36:37.731Z,104.57
2022-10-21T20:39:03.130Z,107.43
2022-10-21T20:41:34.159Z,225.30
2022-10-21T20:43:58.086Z,169.30
2022-10-21T20:46:24.183Z,91.45
2022-10-21T20:48:49.657Z,93.68
2022-10-21T20:51:15.971Z,73.65
2022-10-21T20:53:40.347Z,88.80
2022-10-21T20:56:04.971Z,102.97
2022-10-21T20:58:30.176Z,75.47
2022-10-21T21:00:53.743Z,122.78
2022-10-21T21:03:17.294Z,100.30
2022-10-21T21:05:40.899Z,89.68
2022-10-21T21:08:04.638Z,143.63
2022-10-21T21:10:28.226Z,147.88
2022-10-21T21:12:51.831Z,147.48
2022-10-21T21:15:16.842Z,75.25
2022-10-21T21:17:40.483Z,89.75
2022-10-21T21:20:03.999Z,76.43
2022-10-21T21:22:27.663Z,117.13
2022-10-21T21:24:51.198Z,79.93
2022-10-21T21:27:14.802Z,89.78
2022-10-21T21:29:38.304Z,91.03
2022-10-21T21:32:03.287Z,100.55
2022-10-21T21:34:26.882Z,106.88
2022-10-21T21:36:50.466Z,100.47
2022-10-21T21:41:38.914Z,79.45
2022-10-21T21:44:02.434Z,87.55
2022-10-21T21:46:27.316Z,95.00
2022-10-21T21:48:55.457Z,102.45
2022-10-21T21:51:23.490Z,102.18
2022-10-21T21:53:47.106Z,98.55
2022-10-21T21:56:10.732Z,123.15
2022-10-21T21:58:34.856Z,116.22
2022-10-21T22:00:58.555Z,98.03
2022-10-21T22:03:22.080Z,116.20
2022-10-21T22:05:47.011Z,109.72
2022-10-21T22:08:11.611Z,128.90
2022-10-21T22:10:35.722Z,86.68
2022-10-21T22:12:59.227Z,100.18
2022-10-21T22:15:43.342Z,99.38
2022-10-21T22:18:06.986Z,88.60
2022-10-21T22:20:30.522Z,105.32
2022-10-21T22:22:55.489Z,113.82
2022-10-21T22:25:19.545Z,128.35
2022-10-21T22:27:43.370Z,96.00
2022-10-21T22:30:09.263Z,119.20
2022-10-21T22:32:32.922Z,92.30
2022-10-21T22:34:56.451Z,96.82
2022-10-21T22:37:20.105Z,119.25
2022-10-21T22:39:45.030Z,118.38
2022-10-21T22:42:08.636Z,101.43
2022-10-21T22:44:32.207Z,104.22
2022-10-21T22:46:55.772Z,88.22
2022-10-21T22:49:19.331Z,94.68
2022-10-21T22:51:43.134Z,108.18
2022-10-21T22:54:15.040Z,105.25
2022-10-21T22:56:49.188Z,110.03
2022-10-21T22:59:12.721Z,78.32
2022-10-21T23:01:36.339Z,93.68
2022-10-21T23:04:02.754Z,85.40
2022-10-21T23:06:26.455Z,92.22
2022-10-21T23:08:50.093Z,97.20
2022-10-21T23:11:13.714Z,99.50
2022-10-21T23:13:47.367Z,92.68
2022-10-21T23:16:20.179Z,79.00
2022-10-21T23:18:43.791Z,74.80
2022-10-21T23:21:07.872Z,79.75
2022-10-21T23:23:31.935Z,82.80
2022-10-21T23:25:55.527Z,72.57
2022-10-21T23:30:49.068Z,140.68
2022-10-21T23:33:12.571Z,88.65
2022-10-21T23:35:36.361Z,92.80
2022-10-21T23:38:00.418Z,71.80
2022-10-21T23:40:24.087Z,88.90
2022-10-21T23:42:47.630Z,79.57
2022-10-21T23:45:12.680Z,84.65
2022-10-21T23:47:38.190Z,64.28
2022-10-21T23:50:02.181Z,122.05
2022-10-21T23:52:25.840Z,353.35
2022-10-21T23:54:49.482Z,123.88
2022-10-21T23:57:13.050Z,138.13
2022-10-21T23:59:36.664Z,173.85
